Time;durP1;ratioP1;P1;durP2;ratioP2;P2;SDS_P1;SDS_P2;PMS_P1;PMS_P2;Temp;Humidity;BMP_temperature;BMP_pressure;BME280_temperature;BME280_humidity;BME280_pressure;Samples;Min_cycle;Max_cycle;Signal;HPM_P1;HPM_P2
2024/01/09 00:01:28;;;;;;;7.30;4.82;;;;;;;;;;4992442;28;20076;-47
2024/01/09 00:03:54;;;;;;;6.35;4.82;;;;;;;;;;4996698;28;20065;-47
2024/01/09 00:06:20;;;;;;;7.70;5.07;;;;;;;;;;4991945;28;20030;-48
2024/01/09 00:08:45;;;;;;;7.95;5.00;;;;;;;;;;5000588;28;20038;-47
2024/01/09 00:11:15;;;;;;;9.18;5.00;;;;;;;;;;4992532;28;20031;-46
2024/01/09 00:13:41;;;;;;;7.97;5.57;;;;;;;;;;4997530;28;20045;-44
2024/01/09 00:16:06;;;;;;;7.05;5.55;;;;;;;;;;4992799;28;20401;-47
2024/01/09 00:18:32;;;;;;;8.02;6.03;;;;;;;;;;4990729;28;20039;-47
2024/01/09 00:20:57;;;;;;;9.38;5.53;;;;;;;;;;4985673;28;20041;-51
2024/01/09 00:23:22;;;;;;;10.75;5.82;;;;;;;;;;4989129;28;20041;-47
2024/01/09 00:25:48;;;;;;;7.53;6.03;;;;;;;;;;4993021;28;20036;-47
2024/01/09 00:28:13;;;;;;;8.13;5.53;;;;;;;;;;4994942;28;20376;-50
2024/01/09 00:30:39;;;;;;;8.93;5.88;;;;;;;;;;4994163;28;20518;-49
2024/01/09 00:33:04;;;;;;;7.63;4.85;;;;;;;;;;4978259;28;20034;-48
2024/01/09 00:35:29;;;;;;;8.60;6.03;;;;;;;;;;4984234;28;20034;-49
2024/01/09 00:37:55;;;;;;;7.35;4.75;;;;;;;;;;4986534;28;20040;-47
2024/01/09 00:40:20;;;;;;;8.55;5.68;;;;;;;;;;4989005;28;20042;-45
2024/01/09 00:42:46;;;;;;;7.00;6.00;;;;;;;;;;4993385;28;20023;-47
2024/01/09 00:45:11;;;;;;;6.80;5.10;;;;;;;;;;4960635;28;20042;-47
2024/01/09 00:47:37;;;;;;;8.20;5.70;;;;;;;;;;4980802;28;20026;-45
2024/01/09 00:50:02;;;;;;;7.32;4.97;;;;;;;;;;4986724;28;20129;-45
2024/01/09 00:52:28;;;;;;;7.70;5.60;;;;;;;;;;4993983;28;20523;-49
2024/01/09 00:54:53;;;;;;;6.50;4.75;;;;;;;;;;4993355;28;20035;-48
2024/01/09 00:57:18;;;;;;;5.65;4.35;;;;;;;;;;4988946;28;20428;-49
2024/01/09 00:59:44;;;;;;;7.22;6.30;;;;;;;;;;4990583;28;20667;-46
2024/01/09 01:02:09;;;;;;;7.28;5.53;;;;;;;;;;4989369;28;20031;-48
2024/01/09 01:04:38;;;;;;;7.75;5.03;;;;;;;;;;4990763;28;20078;-50
2024/01/09 01:07:04;;;;;;;9.25;5.63;;;;;;;;;;4984068;28;20022;-49
2024/01/09 01:09:29;;;;;;;8.13;5.20;;;;;;;;;;4988541;28;20640;-45
2024/01/09 01:11:54;;;;;;;6.75;5.28;;;;;;;;;;4984139;28;20035;-45
2024/01/09 01:14:20;;;;;;;7.40;5.00;;;;;;;;;;4987109;28;20746;-45
2024/01/09 01:16:46;;;;;;;7.13;5.10;;;;;;;;;;4989067;28;20494;-45
2024/01/09 01:19:11;;;;;;;6.20;4.28;;;;;;;;;;4990370;28;20034;-51
2024/01/09 01:21:36;;;;;;;8.98;5.05;;;;;;;;;;4992031;28;20036;-46
2024/01/09 01:24:02;;;;;;;6.07;4.70;;;;;;;;;;4997212;28;20101;-45
2024/01/09 01:26:29;;;;;;;5.13;3.95;;;;;;;;;;4986306;28;20429;-45
2024/01/09 01:28:54;;;;;;;5.55;4.85;;;;;;;;;;4988285;28;20042;-45
2024/01/09 01:31:19;;;;;;;8.43;4.68;;;;;;;;;;4986615;28;20033;-45
2024/01/09 01:33:45;;;;;;;5.38;4.22;;;;;;;;;;4988522;28;20038;-48
2024/01/09 01:36:14;;;;;;;5.35;4.85;;;;;;;;;;4988729;28;20030;-46
2024/01/09 01:38:41;;;;;;;6.93;5.35;;;;;;;;;;4988867;28;20484;-44
2024/01/09 01:41:07;;;;;;;6.65;4.97;;;;;;;;;;4989287;28;20022;-45
2024/01/09 01:43:32;;;;;;;7.82;4.45;;;;;;;;;;4988597;28;20042;-46
2024/01/09 01:45:57;;;;;;;6.03;4.32;;;;;;;;;;4989020;28;20495;-47
2024/01/09 01:48:23;;;;;;;7.22;5.07;;;;;;;;;;4987866;28;20517;-46
2024/01/09 01:50:49;;;;;;;6.55;5.80;;;;;;;;;;4990187;28;20101;-46
2024/01/09 01:53:15;;;;;;;7.53;5.03;;;;;;;;;;4991751;28;20033;-48
2024/01/09 01:55:41;;;;;;;5.80;4.65;;;;;;;;;;5007035;28;20477;-47
2024/01/09 01:58:07;;;;;;;6.22;4.65;;;;;;;;;;4984177;28;20049;-49
2024/01/09 02:00:32;;;;;;;6.05;5.18;;;;;;;;;;4986251;28;20019;-46
2024/01/09 02:02:58;;;;;;;7.10;6.40;;;;;;;;;;4987263;28;20031;-47
2024/01/09 02:05:26;;;;;;;6.78;5.15;;;;;;;;;;4986769;28;20038;-48
2024/01/09 02:07:53;;;;;;;5.65;4.75;;;;;;;;;;4987508;28;20494;-46
2024/01/09 02:10:21;;;;;;;7.00;5.35;;;;;;;;;;4976117;28;20115;-46
2024/01/09 02:12:47;;;;;;;7.50;5.20;;;;;;;;;;4974664;28;20027;-44
2024/01/09 02:15:12;;;;;;;6.47;4.70;;;;;;;;;;4974701;28;20039;-48
2024/01/09 02:17:38;;;;;;;6.65;4.80;;;;;;;;;;4969125;28;20680;-45
2024/01/09 02:20:08;;;;;;;10.23;6.13;;;;;;;;;;4971725;28;20038;-45
2024/01/09 02:22:34;;;;;;;8.15;5.70;;;;;;;;;;4975942;28;20033;-46
2024/01/09 02:24:59;;;;;;;10.93;6.47;;;;;;;;;;4973363;28;20047;-48
2024/01/09 02:28:09;;;;;;;9.27;6.68;;;;;;;;;;4970230;28;20446;-47
2024/01/09 02:30:36;;;;;;;7.22;5.38;;;;;;;;;;5014775;28;20048;-47
2024/01/09 02:33:02;;;;;;;7.93;6.00;;;;;;;;;;4979133;28;20502;-46
2024/01/09 02:35:27;;;;;;;8.60;6.30;;;;;;;;;;4992994;28;20038;-50
2024/01/09 02:37:55;;;;;;;8.02;5.40;;;;;;;;;;4990161;28;20093;-46
2024/01/09 02:40:22;;;;;;;9.32;6.28;;;;;;;;;;4994056;28;20516;-45
2024/01/09 02:42:47;;;;;;;10.57;5.47;;;;;;;;;;4985159;28;20039;-45
2024/01/09 02:45:13;;;;;;;8.30;4.72;;;;;;;;;;4983870;28;20037;-46
2024/01/09 02:47:39;;;;;;;7.30;5.85;;;;;;;;;;4998624;28;20027;-46
2024/01/09 02:50:04;;;;;;;6.97;5.68;;;;;;;;;;4984014;28;20034;-47
2024/01/09 02:52:30;;;;;;;6.65;4.68;;;;;;;;;;4995315;28;20050;-47
2024/01/09 02:54:55;;;;;;;7.05;4.88;;;;;;;;;;4986396;28;20112;-45
2024/01/09 02:57:21;;;;;;;8.35;5.75;;;;;;;;;;4988726;28;20027;-45
2024/01/09 02:59:46;;;;;;;6.95;5.20;;;;;;;;;;4981656;28;20085;-45
2024/01/09 03:02:11;;;;;;;5.90;3.92;;;;;;;;;;4987474;28;20026;-48
2024/01/09 03:04:37;;;;;;;6.45;4.82;;;;;;;;;;4986849;28;20617;-49
2024/01/09 03:07:02;;;;;;;6.30;5.28;;;;;;;;;;4973120;28;20073;-49
2024/01/09 03:09:28;;;;;;;6.53;4.45;;;;;;;;;;4985596;28;20129;-45
2024/01/09 03:11:54;;;;;;;7.35;5.82;;;;;;;;;;4993896;28;20042;-48
2024/01/09 03:14:19;;;;;;;7.05;5.68;;;;;;;;;;4969575;28;20035;-49
2024/01/09 03:16:48;;;;;;;7.65;5.88;;;;;;;;;;4988628;28;20036;-46
2024/01/09 03:19:14;;;;;;;8.75;5.78;;;;;;;;;;4982052;28;20489;-48
2024/01/09 03:21:40;;;;;;;6.82;5.20;;;;;;;;;;4981662;28;20056;-51
2024/01/09 03:24:05;;;;;;;7.40;6.10;;;;;;;;;;4990120;28;21192;-49
2024/01/09 03:26:30;;;;;;;7.70;5.30;;;;;;;;;;4995802;28;20026;-49
2024/01/09 03:28:56;;;;;;;5.82;5.15;;;;;;;;;;4988853;28;20448;-47
2024/01/09 03:31:23;;;;;;;6.68;4.82;;;;;;;;;;4996527;28;20507;-49
2024/01/09 03:33:49;;;;;;;6.53;5.32;;;;;;;;;;4990593;28;20044;-47
2024/01/09 03:36:15;;;;;;;12.20;6.20;;;;;;;;;;4997013;28;20023;-46
2024/01/09 03:38:42;;;;;;;8.35;5.72;;;;;;;;;;4985020;28;20066;-45
2024/01/09 03:41:07;;;;;;;9.30;5.85;;;;;;;;;;4993280;28;20080;-44
2024/01/09 03:43:33;;;;;;;7.05;5.70;;;;;;;;;;4990138;28;20062;-48
2024/01/09 03:45:58;;;;;;;8.18;5.25;;;;;;;;;;4995770;28;20030;-45
2024/01/09 03:48:24;;;;;;;6.28;4.32;;;;;;;;;;4989797;28;20044;-44
2024/01/09 03:50:49;;;;;;;6.80;5.07;;;;;;;;;;4992856;28;20107;-48
2024/01/09 03:53:15;;;;;;;7.00;4.50;;;;;;;;;;4986502;28;20492;-51
2024/01/09 03:55:40;;;;;;;6.65;4.80;;;;;;;;;;4992045;28;20038;-47
2024/01/09 03:58:06;;;;;;;6.20;4.47;;;;;;;;;;4988110;28;20036;-47
2024/01/09 04:00:31;;;;;;;8.07;5.20;;;;;;;;;;4988701;28;20029;-46
2024/01/09 04:02:56;;;;;;;7.00;5.47;;;;;;;;;;4999244;28;20049;-47
2024/01/09 04:05:22;;;;;;;7.78;5.25;;;;;;;;;;4993441;28;20065;-47
2024/01/09 04:07:47;;;;;;;7.05;5.30;;;;;;;;;;4992048;28;20018;-47
2024/01/09 04:10:13;;;;;;;7.30;4.93;;;;;;;;;;4990458;28;20041;-48
2024/01/09 04:12:38;;;;;;;5.93;5.22;;;;;;;;;;4987976;28;20078;-45
2024/01/09 04:15:04;;;;;;;8.18;6.28;;;;;;;;;;4990855;28;20046;-47
2024/01/09 04:17:29;;;;;;;6.72;5.68;;;;;;;;;;4997779;28;20031;-46
2024/01/09 04:19:55;;;;;;;7.68;5.82;;;;;;;;;;4986431;28;20485;-50
2024/01/09 04:22:21;;;;;;;10.18;5.75;;;;;;;;;;4993506;28;20030;-46
2024/01/09 04:24:46;;;;;;;8.77;5.13;;;;;;;;;;4983016;28;20489;-47
2024/01/09 04:27:11;;;;;;;7.55;5.65;;;;;;;;;;4995910;28;20022;-48
2024/01/09 04:29:37;;;;;;;6.40;4.55;;;;;;;;;;4980088;28;20057;-47
2024/01/09 04:32:02;;;;;;;7.57;5.93;;;;;;;;;;4994640;28;20049;-48
2024/01/09 04:34:28;;;;;;;6.50;4.80;;;;;;;;;;4993706;28;20030;-47
2024/01/09 04:36:53;;;;;;;7.22;5.45;;;;;;;;;;4988168;28;20499;-48
2024/01/09 04:39:19;;;;;;;10.02;7.25;;;;;;;;;;4984399;28;20098;-44
2024/01/09 04:41:45;;;;;;;7.18;5.18;;;;;;;;;;4991449;28;20037;-46
2024/01/09 04:44:10;;;;;;;9.07;6.28;;;;;;;;;;4995571;28;20042;-47
2024/01/09 04:46:36;;;;;;;8.07;5.93;;;;;;;;;;4991423;28;20433;-48
2024/01/09 04:49:03;;;;;;;6.88;5.40;;;;;;;;;;4987719;28;20039;-49
2024/01/09 04:51:30;;;;;;;8.60;5.28;;;;;;;;;;4996003;28;20050;-46
2024/01/09 04:53:55;;;;;;;6.30;5.15;;;;;;;;;;4986779;28;20038;-47
2024/01/09 04:56:21;;;;;;;7.88;5.30;;;;;;;;;;4985797;28;20109;-50
2024/01/09 04:58:46;;;;;;;8.45;5.43;;;;;;;;;;4985419;28;20532;-47
2024/01/09 05:01:12;;;;;;;9.10;7.10;;;;;;;;;;4985534;28;20496;-46
2024/01/09 05:03:37;;;;;;;9.07;6.75;;;;;;;;;;5000397;28;20046;-47
2024/01/09 05:06:03;;;;;;;10.30;6.18;;;;;;;;;;4985135;28;20038;-45
2024/01/09 05:08:28;;;;;;;7.97;6.07;;;;;;;;;;4985917;28;20030;-44
2024/01/09 05:10:53;;;;;;;7.18;4.97;;;;;;;;;;4992329;28;20026;-47
2024/01/09 05:13:19;;;;;;;7.60;5.68;;;;;;;;;;4994313;28;20069;-49
2024/01/09 05:15:44;;;;;;;7.88;5.93;;;;;;;;;;4986888;28;20069;-45
2024/01/09 05:18:10;;;;;;;8.55;5.57;;;;;;;;;;4991388;28;20031;-47
2024/01/09 05:20:35;;;;;;;8.30;5.80;;;;;;;;;;4986304;28;20018;-47
2024/01/09 05:23:00;;;;;;;8.90;7.63;;;;;;;;;;4988697;28;20428;-49
2024/01/09 05:25:26;;;;;;;7.45;5.55;;;;;;;;;;4985407;28;20027;-48
2024/01/09 05:27:51;;;;;;;8.27;5.78;;;;;;;;;;4993343;28;20038;-48
2024/01/09 05:30:17;;;;;;;8.30;6.45;;;;;;;;;;4987100;28;20034;-50
2024/01/09 05:32:42;;;;;;;9.63;7.22;;;;;;;;;;4982100;28;20057;-46
2024/01/09 05:35:09;;;;;;;7.45;5.25;;;;;;;;;;4984761;28;20061;-48
2024/01/09 05:37:35;;;;;;;11.07;7.28;;;;;;;;;;4984559;28;21453;-48
2024/01/09 05:40:00;;;;;;;9.80;7.78;;;;;;;;;;4981105;28;20616;-52
2024/01/09 05:42:25;;;;;;;8.23;6.63;;;;;;;;;;4997100;28;20089;-46
2024/01/09 05:44:51;;;;;;;9.77;6.10;;;;;;;;;;4987228;28;20042;-46
2024/01/09 05:47:17;;;;;;;7.93;6.32;;;;;;;;;;4981631;28;20018;-45
2024/01/09 05:49:42;;;;;;;9.57;5.50;;;;;;;;;;4984412;28;20465;-45
2024/01/09 05:52:07;;;;;;;9.15;6.72;;;;;;;;;;4991365;28;20493;-46
2024/01/09 05:54:33;;;;;;;14.70;8.75;;;;;;;;;;4993618;28;20042;-45
2024/01/09 05:56:58;;;;;;;14.43;8.55;;;;;;;;;;4990722;28;20034;-50
2024/01/09 05:59:24;;;;;;;12.38;8.18;;;;;;;;;;4967553;28;20035;-49
2024/01/09 06:01:49;;;;;;;11.88;7.72;;;;;;;;;;4996475;28;20023;-46
2024/01/09 06:04:14;;;;;;;12.82;7.82;;;;;;;;;;4975183;28;20097;-48
2024/01/09 06:06:40;;;;;;;12.40;7.68;;;;;;;;;;4986401;28;20565;-46
2024/01/09 06:09:06;;;;;;;10.38;6.72;;;;;;;;;;4982598;28;20122;-46
2024/01/09 06:11:31;;;;;;;9.10;6.60;;;;;;;;;;4982876;28;20030;-47
2024/01/09 06:13:56;;;;;;;10.13;8.80;;;;;;;;;;4986046;28;20042;-46
2024/01/09 06:16:22;;;;;;;10.68;8.85;;;;;;;;;;4987749;28;20041;-47
2024/01/09 06:18:48;;;;;;;14.85;8.15;;;;;;;;;;4986486;28;20049;-45
2024/01/09 06:21:13;;;;;;;14.13;8.55;;;;;;;;;;4984077;28;20042;-44
2024/01/09 06:23:39;;;;;;;10.55;6.63;;;;;;;;;;4987981;28;20035;-47
2024/01/09 06:26:04;;;;;;;11.65;6.97;;;;;;;;;;4990082;28;20033;-45
2024/01/09 06:28:31;;;;;;;16.20;9.85;;;;;;;;;;4984075;28;20042;-44
2024/01/09 06:30:57;;;;;;;14.95;8.68;;;;;;;;;;4985898;28;20088;-44
2024/01/09 06:33:22;;;;;;;12.70;7.00;;;;;;;;;;4982500;28;20042;-45
2024/01/09 06:35:48;;;;;;;10.73;7.05;;;;;;;;;;4983088;28;20055;-43
2024/01/09 06:38:14;;;;;;;11.02;7.97;;;;;;;;;;4986057;28;20113;-47
2024/01/09 06:40:39;;;;;;;10.35;7.45;;;;;;;;;;4981658;28;20596;-49
2024/01/09 06:43:05;;;;;;;11.65;6.90;;;;;;;;;;4984039;28;20031;-46
2024/01/09 06:45:31;;;;;;;11.85;7.30;;;;;;;;;;4982137;28;20076;-45
2024/01/09 06:47:57;;;;;;;9.80;6.90;;;;;;;;;;4980338;28;20022;-49
2024/01/09 06:50:22;;;;;;;9.50;7.18;;;;;;;;;;4987908;28;20061;-45
2024/01/09 06:52:48;;;;;;;11.93;8.40;;;;;;;;;;4981520;28;20182;-45
2024/01/09 06:55:13;;;;;;;11.10;6.53;;;;;;;;;;4983103;28;20070;-45
2024/01/09 06:57:38;;;;;;;12.32;6.78;;;;;;;;;;4989346;28;20065;-44
2024/01/09 07:00:05;;;;;;;11.98;6.97;;;;;;;;;;4980960;28;20064;-49
2024/01/09 07:02:30;;;;;;;12.73;9.52;;;;;;;;;;4995213;28;20069;-47
2024/01/09 07:04:56;;;;;;;15.63;8.30;;;;;;;;;;4988193;28;20039;-46
2024/01/09 07:07:22;;;;;;;12.27;8.80;;;;;;;;;;4975975;28;20031;-46
2024/01/09 07:09:48;;;;;;;10.63;7.50;;;;;;;;;;4988878;28;20590;-46
2024/01/09 07:12:16;;;;;;;14.90;8.52;;;;;;;;;;4987012;28;21201;-46
2024/01/09 07:14:41;;;;;;;9.90;7.45;;;;;;;;;;4970644;28;20038;-48
2024/01/09 07:17:07;;;;;;;11.82;7.57;;;;;;;;;;4990966;28;20038;-47
2024/01/09 07:19:33;;;;;;;10.98;6.43;;;;;;;;;;4975858;28;20042;-46
2024/01/09 07:21:58;;;;;;;10.98;7.72;;;;;;;;;;4977429;28;20038;-50
2024/01/09 07:24:24;;;;;;;10.65;8.18;;;;;;;;;;4984435;28;20374;-46
2024/01/09 07:26:50;;;;;;;13.60;9.15;;;;;;;;;;4988290;28;20176;-45
2024/01/09 07:29:17;;;;;;;12.10;8.13;;;;;;;;;;4987476;28;20035;-45
2024/01/09 07:31:43;;;;;;;12.82;8.60;;;;;;;;;;4990696;28;20037;-45
2024/01/09 07:34:09;;;;;;;13.07;8.88;;;;;;;;;;4980046;28;20043;-44
2024/01/09 07:36:34;;;;;;;14.65;9.77;;;;;;;;;;4982625;28;20517;-44
2024/01/09 07:39:00;;;;;;;15.38;12.80;;;;;;;;;;4992606;28;20938;-45
2024/01/09 07:41:25;;;;;;;14.40;11.20;;;;;;;;;;4983285;28;20037;-46
2024/01/09 07:43:51;;;;;;;16.15;11.40;;;;;;;;;;4987411;28;20130;-47
2024/01/09 07:46:17;;;;;;;13.63;10.02;;;;;;;;;;4977940;28;20027;-46
2024/01/09 07:48:43;;;;;;;14.52;10.07;;;;;;;;;;4984390;28;20038;-47
2024/01/09 07:51:08;;;;;;;11.15;8.50;;;;;;;;;;4986060;28;20077;-47
2024/01/09 07:53:34;;;;;;;10.82;8.27;;;;;;;;;;4986454;28;20035;-45
2024/01/09 07:56:00;;;;;;;11.95;8.30;;;;;;;;;;4990565;28;20027;-45
2024/01/09 07:58:25;;;;;;;11.80;8.20;;;;;;;;;;4986765;28;20057;-45
2024/01/09 08:00:51;;;;;;;13.75;10.00;;;;;;;;;;4992255;28;20459;-47
2024/01/09 08:03:16;;;;;;;13.00;8.60;;;;;;;;;;4982790;28;20037;-47
2024/01/09 08:05:42;;;;;;;13.27;8.88;;;;;;;;;;4986729;28;20113;-47
2024/01/09 08:08:07;;;;;;;17.25;10.00;;;;;;;;;;4989659;28;20116;-50
2024/01/09 08:10:32;;;;;;;13.65;9.45;;;;;;;;;;4973048;28;20026;-48
2024/01/09 08:12:58;;;;;;;15.35;10.48;;;;;;;;;;4989453;28;20021;-46
2024/01/09 08:15:24;;;;;;;18.13;12.63;;;;;;;;;;4982998;28;20046;-49
2024/01/09 08:17:50;;;;;;;24.30;14.20;;;;;;;;;;4988317;28;20102;-48
2024/01/09 08:20:15;;;;;;;25.95;16.88;;;;;;;;;;4989148;28;20046;-47
2024/01/09 08:22:41;;;;;;;26.13;16.08;;;;;;;;;;4993913;28;20040;-45
2024/01/09 08:25:07;;;;;;;31.58;18.88;;;;;;;;;;4995349;28;20039;-46
2024/01/09 08:27:33;;;;;;;44.35;17.83;;;;;;;;;;4987086;28;20414;-48
2024/01/09 08:29:58;;;;;;;43.47;18.38;;;;;;;;;;4992151;28;20034;-47
2024/01/09 08:32:24;;;;;;;24.35;15.85;;;;;;;;;;4999913;28;20023;-47
2024/01/09 08:34:50;;;;;;;24.23;13.82;;;;;;;;;;4988212;28;20043;-47
2024/01/09 08:37:15;;;;;;;20.58;12.65;;;;;;;;;;4996354;28;20038;-44
2024/01/09 08:39:41;;;;;;;16.88;11.07;;;;;;;;;;4990409;28;20505;-45
2024/01/09 08:42:06;;;;;;;17.92;11.82;;;;;;;;;;4986306;28;20026;-46
2024/01/09 08:44:32;;;;;;;13.73;8.40;;;;;;;;;;4989018;28;20065;-45
2024/01/09 08:46:57;;;;;;;12.93;9.18;;;;;;;;;;4990072;28;20030;-45
2024/01/09 08:49:22;;;;;;;13.88;11.43;;;;;;;;;;4995625;28;20405;-46
2024/01/09 08:51:48;;;;;;;15.30;9.20;;;;;;;;;;4988366;28;20556;-48
2024/01/09 08:54:14;;;;;;;12.32;9.25;;;;;;;;;;4992639;28;20511;-48
2024/01/09 08:56:39;;;;;;;13.23;8.98;;;;;;;;;;4987692;28;20708;-48
2024/01/09 08:59:07;;;;;;;11.68;9.52;;;;;;;;;;4986178;28;20084;-50
2024/01/09 09:01:35;;;;;;;13.38;10.63;;;;;;;;;;4991442;28;20049;-47
2024/01/09 09:04:01;;;;;;;14.07;10.80;;;;;;;;;;4996581;28;20074;-45
2024/01/09 09:06:27;;;;;;;16.48;12.90;;;;;;;;;;4995146;28;20027;-45
2024/01/09 09:08:52;;;;;;;17.83;12.27;;;;;;;;;;4976646;28;20719;-45
2024/01/09 09:11:18;;;;;;;17.67;14.20;;;;;;;;;;4985873;28;20388;-46
2024/01/09 09:13:44;;;;;;;17.27;12.68;;;;;;;;;;4988065;28;20563;-48
2024/01/09 09:16:09;;;;;;;14.15;9.68;;;;;;;;;;4988258;28;20050;-49
2024/01/09 09:18:35;;;;;;;54.10;32.88;;;;;;;;;;4986046;28;20053;-46
2024/01/09 09:21:04;;;;;;;41.88;27.30;;;;;;;;;;4983056;28;20026;-46
2024/01/09 09:23:30;;;;;;;35.15;24.23;;;;;;;;;;4992864;28;20061;-46
2024/01/09 09:25:56;;;;;;;35.75;23.65;;;;;;;;;;4990839;28;20019;-46
2024/01/09 09:28:22;;;;;;;31.42;22.92;;;;;;;;;;4988179;28;20080;-47
2024/01/09 09:30:47;;;;;;;29.80;21.45;;;;;;;;;;4987850;28;20033;-50
2024/01/09 09:33:12;;;;;;;21.77;14.20;;;;;;;;;;4990137;28;20049;-48
2024/01/09 09:35:38;;;;;;;16.90;12.50;;;;;;;;;;4987628;28;20042;-46
2024/01/09 09:38:04;;;;;;;15.27;11.57;;;;;;;;;;4992449;28;20037;-47
2024/01/09 09:40:30;;;;;;;18.60;13.27;;;;;;;;;;4985020;28;20030;-47
2024/01/09 09:43:00;;;;;;;18.30;13.77;;;;;;;;;;4987402;28;20492;-48
2024/01/09 09:45:29;;;;;;;15.18;11.55;;;;;;;;;;4959337;28;20051;-47
2024/01/09 09:47:55;;;;;;;;;;;;;;;;;;4961869;28;20031;-46
2024/01/09 09:50:21;;;;;;;15.27;10.20;;;;;;;;;;4980913;28;19928;-45
2024/01/09 09:52:47;;;;;;;16.38;10.93;;;;;;;;;;4984111;28;20050;-47
2024/01/09 09:55:13;;;;;;;13.50;9.45;;;;;;;;;;4981263;28;20030;-46
2024/01/09 09:57:39;;;;;;;10.57;8.20;;;;;;;;;;4983383;28;20066;-48
2024/01/09 10:00:08;;;;;;;12.23;8.77;;;;;;;;;;4980763;28;20160;-45
2024/01/09 10:02:34;;;;;;;14.68;9.05;;;;;;;;;;4988458;28;20072;-49
2024/01/09 10:05:19;;;;;;;13.73;8.77;;;;;;;;;;4980569;28;20134;-45
2024/01/09 10:07:48;;;;;;;10.88;7.80;;;;;;;;;;4986847;28;20106;-47
2024/01/09 10:10:14;;;;;;;14.35;9.13;;;;;;;;;;4989711;28;20064;-46
2024/01/09 10:12:40;;;;;;;13.00;8.57;;;;;;;;;;4978208;28;20054;-46
2024/01/09 10:15:11;;;;;;;12.50;9.90;;;;;;;;;;4987898;28;20100;-45
2024/01/09 10:17:38;;;;;;;19.80;11.32;;;;;;;;;;4990248;28;20038;-45
2024/01/09 10:20:04;;;;;;;14.50;9.93;;;;;;;;;;4984568;28;20761;-46
2024/01/09 10:22:33;;;;;;;16.15;11.48;;;;;;;;;;4985674;28;20503;-46
2024/01/09 10:24:58;;;;;;;12.02;8.35;;;;;;;;;;4992889;28;20046;-46
2024/01/09 10:27:24;;;;;;;13.45;9.18;;;;;;;;;;4993300;28;20030;-49
2024/01/09 10:29:49;;;;;;;16.02;10.38;;;;;;;;;;4993255;28;20038;-44
2024/01/09 10:32:17;;;;;;;16.92;11.57;;;;;;;;;;4987220;28;20069;-52
2024/01/09 10:34:43;;;;;;;15.43;9.75;;;;;;;;;;4986884;28;20496;-50
2024/01/09 10:37:09;;;;;;;17.02;12.02;;;;;;;;;;4987695;28;20081;-46
2024/01/09 10:39:35;;;;;;;17.25;11.75;;;;;;;;;;4980634;28;20038;-45
2024/01/09 10:42:06;;;;;;;18.45;12.93;;;;;;;;;;4991459;28;20033;-50
2024/01/09 10:44:31;;;;;;;16.30;9.50;;;;;;;;;;4986916;28;20043;-48
2024/01/09 10:46:59;;;;;;;15.70;11.27;;;;;;;;;;4983721;28;20106;-46
2024/01/09 10:49:25;;;;;;;17.20;13.77;;;;;;;;;;4979069;28;20521;-47
2024/01/09 10:51:52;;;;;;;17.08;12.63;;;;;;;;;;4987837;28;20050;-45
2024/01/09 10:54:19;;;;;;;16.30;10.95;;;;;;;;;;4983005;28;20042;-45
2024/01/09 10:56:45;;;;;;;17.55;12.18;;;;;;;;;;4981668;28;20579;-45
2024/01/09 10:59:12;;;;;;;12.98;9.48;;;;;;;;;;4985364;28;20041;-45
2024/01/09 11:01:37;;;;;;;14.07;10.23;;;;;;;;;;4988492;28;20026;-46
2024/01/09 11:04:03;;;;;;;13.05;10.32;;;;;;;;;;4984902;28;20511;-48
2024/01/09 11:06:32;;;;;;;14.75;11.85;;;;;;;;;;4980825;28;20098;-45
2024/01/09 11:09:04;;;;;;;14.27;11.07;;;;;;;;;;4985692;28;20048;-47
2024/01/09 11:11:31;;;;;;;14.45;11.27;;;;;;;;;;4983694;28;20025;-46
2024/01/09 11:14:00;;;;;;;14.43;9.88;;;;;;;;;;4991471;28;20035;-50
2024/01/09 11:16:29;;;;;;;12.77;9.50;;;;;;;;;;4983643;28;20023;-49
2024/01/09 11:18:55;;;;;;;13.90;9.15;;;;;;;;;;4981111;28;20054;-46
2024/01/09 11:21:26;;;;;;;12.68;10.05;;;;;;;;;;4983249;28;20031;-47
2024/01/09 11:23:54;;;;;;;12.20;9.05;;;;;;;;;;4992006;28;20041;-48
2024/01/09 11:26:20;;;;;;;13.65;9.73;;;;;;;;;;4989798;28;20492;-50
2024/01/09 11:28:46;;;;;;;13.95;8.93;;;;;;;;;;4979805;28;20065;-50
2024/01/09 11:31:20;;;;;;;17.67;12.55;;;;;;;;;;4981111;28;20393;-48
2024/01/09 11:33:49;;;;;;;14.85;10.40;;;;;;;;;;4988639;28;20042;-46
2024/01/09 11:36:22;;;;;;;14.95;11.25;;;;;;;;;;4990790;28;20068;-48
2024/01/09 11:38:49;;;;;;;16.98;10.00;;;;;;;;;;4985407;28;20493;-48
2024/01/09 11:41:14;;;;;;;16.70;11.55;;;;;;;;;;4984519;28;20048;-48
2024/01/09 11:44:06;;;;;;;14.32;12.73;;;;;;;;;;4985408;28;20382;-46
2024/01/09 11:46:36;;;;;;;11.48;8.95;;;;;;;;;;4985826;28;20418;-46
2024/01/09 11:49:03;;;;;;;13.25;9.13;;;;;;;;;;4985836;28;20031;-46
2024/01/09 11:51:33;;;;;;;12.30;9.48;;;;;;;;;;4990808;28;20049;-50
2024/01/09 11:54:00;;;;;;;13.80;9.40;;;;;;;;;;4991687;28;20034;-49
2024/01/09 11:56:27;;;;;;;13.15;8.52;;;;;;;;;;4997192;28;20018;-50
2024/01/09 11:58:57;;;;;;;12.95;10.48;;;;;;;;;;4998690;28;20045;-52
2024/01/09 12:01:23;;;;;;;14.50;11.45;;;;;;;;;;4991313;28;20093;-45
2024/01/09 12:03:55;;;;;;;14.57;10.73;;;;;;;;;;4975903;28;20609;-50
2024/01/09 12:06:22;;;;;;;12.25;10.05;;;;;;;;;;4984948;28;20038;-46
2024/01/09 12:08:48;;;;;;;14.30;9.55;;;;;;;;;;4994832;28;20038;-47
2024/01/09 12:11:15;;;;;;;14.40;10.55;;;;;;;;;;4997777;28;20461;-50
2024/01/09 12:13:41;;;;;;;13.70;9.30;;;;;;;;;;4990774;28;20122;-48
2024/01/09 12:16:21;;;;;;;10.65;8.38;;;;;;;;;;4990031;28;20052;-49
2024/01/09 12:18:56;;;;;;;14.77;10.38;;;;;;;;;;4985942;28;20043;-46
2024/01/09 12:21:24;;;;;;;13.77;9.23;;;;;;;;;;4990013;28;20054;-47
2024/01/09 12:23:50;;;;;;;12.38;9.68;;;;;;;;;;4982177;28;20039;-48
2024/01/09 12:26:18;;;;;;;14.18;9.63;;;;;;;;;;4985714;28;20061;-47
2024/01/09 12:28:45;;;;;;;13.30;9.43;;;;;;;;;;4989579;28;20504;-48
2024/01/09 12:31:11;;;;;;;12.75;9.15;;;;;;;;;;4995318;28;20059;-46
2024/01/09 12:33:37;;;;;;;15.15;9.50;;;;;;;;;;4987159;28;20501;-49
2024/01/09 12:36:03;;;;;;;14.90;11.02;;;;;;;;;;4989545;28;20354;-46
2024/01/09 12:38:29;;;;;;;14.90;10.25;;;;;;;;;;4991259;28;20042;-47
2024/01/09 12:41:02;;;;;;;16.23;9.70;;;;;;;;;;4989202;28;20038;-48
2024/01/09 12:43:28;;;;;;;13.18;9.63;;;;;;;;;;4986399;28;20047;-49
2024/01/09 12:45:54;;;;;;;12.07;9.27;;;;;;;;;;4988627;28;20050;-49
2024/01/09 12:48:21;;;;;;;13.40;9.85;;;;;;;;;;4993796;28;20201;-48
2024/01/09 12:51:03;;;;;;;13.68;11.35;;;;;;;;;;4988117;28;20027;-45
2024/01/09 12:53:34;;;;;;;13.50;10.13;;;;;;;;;;4994793;28;20042;-47
2024/01/09 12:56:13;;;;;;;13.77;9.63;;;;;;;;;;4990289;28;20014;-48
2024/01/09 12:58:46;;;;;;;14.73;10.77;;;;;;;;;;4996284;28;20129;-49
2024/01/09 13:01:16;;;;;;;14.45;10.20;;;;;;;;;;4991604;28;20030;-50
2024/01/09 13:03:42;;;;;;;14.35;9.70;;;;;;;;;;4990595;28;20034;-49
2024/01/09 13:06:12;;;;;;;17.77;11.70;;;;;;;;;;4991285;28;20029;-50
2024/01/09 13:08:38;;;;;;;13.88;9.70;;;;;;;;;;4990974;28;20045;-49
2024/01/09 13:11:05;;;;;;;15.25;10.57;;;;;;;;;;4987063;28;20018;-48
2024/01/09 13:13:35;;;;;;;13.93;10.02;;;;;;;;;;4995369;28;20030;-46
2024/01/09 13:16:06;;;;;;;15.15;9.95;;;;;;;;;;4996328;28;20049;-48
2024/01/09 13:18:32;;;;;;;14.70;8.98;;;;;;;;;;4988855;28;20050;-50
2024/01/09 13:20:58;;;;;;;13.50;8.68;;;;;;;;;;4990230;28;20030;-55
2024/01/09 13:23:23;;;;;;;13.20;9.55;;;;;;;;;;4995412;28;20049;-47
2024/01/09 13:25:51;;;;;;;12.73;8.60;;;;;;;;;;4978631;28;20027;-50
2024/01/09 13:28:17;;;;;;;13.82;8.98;;;;;;;;;;4992058;28;20078;-49
2024/01/09 13:30:43;;;;;;;14.75;11.10;;;;;;;;;;4998782;28;20675;-49
2024/01/09 13:33:11;;;;;;;14.23;10.07;;;;;;;;;;4989938;28;20061;-48
2024/01/09 13:35:37;;;;;;;15.88;10.32;;;;;;;;;;4988502;28;20143;-46
2024/01/09 13:38:06;;;;;;;11.95;9.35;;;;;;;;;;4990527;28;20477;-47
2024/01/09 13:40:33;;;;;;;12.40;9.05;;;;;;;;;;4992583;28;20077;-47
2024/01/09 13:42:59;;;;;;;15.73;10.23;;;;;;;;;;4984650;28;20033;-43
2024/01/09 13:45:25;;;;;;;16.98;11.35;;;;;;;;;;4991629;28;20477;-49
2024/01/09 13:47:50;;;;;;;14.63;12.50;;;;;;;;;;4991287;28;20026;-47
2024/01/09 13:50:16;;;;;;;11.88;8.50;;;;;;;;;;4984297;28;20664;-46
2024/01/09 13:52:42;;;;;;;10.90;8.85;;;;;;;;;;4984620;28;20054;-45
2024/01/09 13:55:09;;;;;;;12.88;9.57;;;;;;;;;;4989620;28;20035;-44
2024/01/09 13:57:36;;;;;;;14.02;10.30;;;;;;;;;;4987796;28;20508;-45
2024/01/09 14:00:07;;;;;;;10.25;7.45;;;;;;;;;;4982863;28;20054;-48
2024/01/09 14:02:33;;;;;;;12.18;9.27;;;;;;;;;;4987755;28;20031;-48
2024/01/09 14:04:58;;;;;;;11.73;8.40;;;;;;;;;;4988173;28;20089;-46
2024/01/09 14:07:23;;;;;;;13.55;10.05;;;;;;;;;;4983228;28;20038;-43
2024/01/09 14:09:49;;;;;;;14.43;10.02;;;;;;;;;;4984875;28;20039;-44
2024/01/09 14:12:14;;;;;;;13.27;8.85;;;;;;;;;;4987458;28;20030;-47
2024/01/09 14:14:39;;;;;;;14.35;9.88;;;;;;;;;;4988324;28;20034;-45
2024/01/09 14:17:05;;;;;;;12.25;8.40;;;;;;;;;;4990763;28;20038;-45
2024/01/09 14:19:30;;;;;;;12.07;8.98;;;;;;;;;;4987996;28;20061;-46
2024/01/09 14:21:56;;;;;;;11.73;9.82;;;;;;;;;;4987716;28;20026;-49
2024/01/09 14:24:22;;;;;;;10.48;7.95;;;;;;;;;;4988202;28;20046;-50
2024/01/09 14:26:48;;;;;;;12.18;8.20;;;;;;;;;;4985486;28;20026;-50